Time;durP1;ratioP1;P1;durP2;ratioP2;P2;SDS_P1;SDS_P2;PMS_P1;PMS_P2;Temp;Humidity;BMP_temperature;BMP_pressure;BME280_temperature;BME280_humidity;BME280_pressure;Samples;Min_cycle;Max_cycle;Signal;HPM_P1;HPM_P2
2021/10/22 00:01:18;;;;;;;8.23;3.10;;;;;;;;;;5150232;27;20459;-83
2021/10/22 00:03:48;;;;;;;5.97;1.50;;;;;;;;;;5149274;27;20528;-84
2021/10/22 00:06:15;;;;;;;5.43;1.53;;;;;;;;;;5148983;27;20544;-83
2021/10/22 00:08:43;;;;;;;6.10;0.97;;;;;;;;;;5147923;27;20541;-81
2021/10/22 00:11:11;;;;;;;2.70;1.03;;;;;;;;;;5149019;27;20540;-82
2021/10/22 00:13:38;;;;;;;8.33;1.70;;;;;;;;;;5148933;27;20489;-83
2021/10/22 00:16:06;;;;;;;6.93;1.60;;;;;;;;;;5146324;27;20480;-82
2021/10/22 00:18:34;;;;;;;3.20;0.97;;;;;;;;;;5147675;27;20474;-83
2021/10/22 00:21:03;;;;;;;5.53;2.00;;;;;;;;;;5146567;27;20525;-83
2021/10/22 00:23:31;;;;;;;9.47;1.90;;;;;;;;;;5147136;27;20461;-83
2021/10/22 00:25:59;;;;;;;4.00;1.00;;;;;;;;;;5145534;27;20482;-83
2021/10/22 00:28:27;;;;;;;7.13;1.83;;;;;;;;;;5146757;27;20460;-83
2021/10/22 00:30:57;;;;;;;6.67;1.37;;;;;;;;;;5146549;27;20453;-82
2021/10/22 00:33:25;;;;;;;3.93;0.90;;;;;;;;;;5145715;27;20446;-83
2021/10/22 00:35:52;;;;;;;8.47;2.00;;;;;;;;;;5146663;27;20481;-83
2021/10/22 00:38:21;;;;;;;4.13;0.70;;;;;;;;;;5145387;27;20885;-83
2021/10/22 00:40:49;;;;;;;5.23;2.17;;;;;;;;;;5146052;27;20477;-82
2021/10/22 00:43:17;;;;;;;5.23;1.27;;;;;;;;;;5145293;27;20456;-82
2021/10/22 00:45:45;;;;;;;4.60;2.07;;;;;;;;;;5143959;27;20897;-81
2021/10/22 00:48:12;;;;;;;3.43;1.20;;;;;;;;;;5125456;28;20478;-82
2021/10/22 00:50:41;;;;;;;2.43;1.37;;;;;;;;;;5124868;28;20497;-82
2021/10/22 00:53:09;;;;;;;1.93;0.93;;;;;;;;;;5125132;28;20871;-81
2021/10/22 00:55:38;;;;;;;7.57;1.47;;;;;;;;;;5124001;28;20510;-82
2021/10/22 00:58:06;;;;;;;7.40;1.37;;;;;;;;;;5143378;27;20469;-83
2021/10/22 01:00:35;;;;;;;6.53;1.37;;;;;;;;;;5145962;27;20859;-82
2021/10/22 01:03:03;;;;;;;6.07;2.03;;;;;;;;;;5144764;27;20465;-82
2021/10/22 01:05:31;;;;;;;5.67;1.70;;;;;;;;;;5143564;27;20534;-82
2021/10/22 01:07:58;;;;;;;2.23;0.60;;;;;;;;;;5144063;27;20528;-83
2021/10/22 01:10:26;;;;;;;1.87;1.07;;;;;;;;;;5148688;27;20450;-82
2021/10/22 01:12:56;;;;;;;4.23;1.40;;;;;;;;;;5148352;27;20820;-83
2021/10/22 01:15:24;;;;;;;1.90;0.83;;;;;;;;;;5147712;27;20529;-83
2021/10/22 01:17:51;;;;;;;9.73;2.50;;;;;;;;;;5148859;27;20553;-82
2021/10/22 01:20:20;;;;;;;3.57;1.20;;;;;;;;;;5150028;27;20932;-83
2021/10/22 01:22:50;;;;;;;8.77;1.27;;;;;;;;;;5150676;27;20505;-83
2021/10/22 01:25:18;;;;;;;2.20;1.03;;;;;;;;;;5148916;27;20522;-82
2021/10/22 01:27:47;;;;;;;1.20;0.80;;;;;;;;;;5149230;27;20454;-83
2021/10/22 01:30:15;;;;;;;2.03;0.70;;;;;;;;;;5150402;27;20469;-82
2021/10/22 01:32:43;;;;;;;3.90;0.87;;;;;;;;;;5150352;27;20442;-83
2021/10/22 01:35:12;;;;;;;4.40;1.23;;;;;;;;;;5148715;27;20539;-83
2021/10/22 01:37:40;;;;;;;6.30;1.80;;;;;;;;;;5149378;27;20511;-83
2021/10/22 01:40:11;;;;;;;2.60;1.70;;;;;;;;;;5148566;27;20485;-83
2021/10/22 01:42:39;;;;;;;4.40;1.73;;;;;;;;;;5148169;27;20442;-83
2021/10/22 01:45:07;;;;;;;1.10;0.70;;;;;;;;;;5148532;27;20525;-82
2021/10/22 01:47:35;;;;;;;8.43;1.90;;;;;;;;;;5148843;27;20446;-83
2021/10/22 01:50:03;;;;;;;3.87;1.83;;;;;;;;;;5148258;27;20594;-83
2021/10/22 01:52:30;;;;;;;3.20;1.30;;;;;;;;;;5149492;27;20474;-83
2021/10/22 01:54:58;;;;;;;2.43;1.00;;;;;;;;;;5147550;27;20960;-81
2021/10/22 01:57:28;;;;;;;2.70;1.07;;;;;;;;;;5148096;27;20457;-82
2021/10/22 01:59:55;;;;;;;4.63;1.73;;;;;;;;;;5148117;27;20927;-83
2021/10/22 02:02:23;;;;;;;3.77;1.70;;;;;;;;;;5147668;27;20596;-82
2021/10/22 02:04:51;;;;;;;4.07;0.90;;;;;;;;;;5146943;27;20521;-82
2021/10/22 02:07:19;;;;;;;7.13;2.03;;;;;;;;;;5148514;27;20541;-83
2021/10/22 02:09:46;;;;;;;1.83;1.17;;;;;;;;;;5147345;27;20457;-83
2021/10/22 02:12:14;;;;;;;4.70;0.80;;;;;;;;;;5146285;27;20483;-82
2021/10/22 02:14:43;;;;;;;4.30;1.80;;;;;;;;;;5148520;27;20454;-83
2021/10/22 02:17:11;;;;;;;6.33;1.60;;;;;;;;;;5147706;27;20454;-81
2021/10/22 02:19:39;;;;;;;2.27;0.80;;;;;;;;;;5147440;27;20490;-83
2021/10/22 02:22:07;;;;;;;2.40;1.00;;;;;;;;;;5148499;27;20460;-82
2021/10/22 02:24:38;;;;;;;2.50;0.60;;;;;;;;;;5147941;27;20521;-83
2021/10/22 02:27:05;;;;;;;3.23;1.80;;;;;;;;;;5148791;27;20460;-83
2021/10/22 02:29:33;;;;;;;3.83;1.17;;;;;;;;;;5146825;27;20456;-83
2021/10/22 02:32:02;;;;;;;4.80;1.67;;;;;;;;;;5147099;27;20699;-83
2021/10/22 02:34:30;;;;;;;5.07;1.20;;;;;;;;;;5147976;27;20545;-84
2021/10/22 02:36:58;;;;;;;4.20;1.43;;;;;;;;;;5146594;27;20485;-82
2021/10/22 02:39:25;;;;;;;3.47;1.33;;;;;;;;;;5149128;27;20545;-84
2021/10/22 02:41:53;;;;;;;1.60;1.07;;;;;;;;;;5147292;27;20536;-83
2021/10/22 02:44:21;;;;;;;4.13;1.43;;;;;;;;;;5147213;27;20489;-83
2021/10/22 02:46:48;;;;;;;2.00;1.07;;;;;;;;;;5148581;28;20492;-83
2021/10/22 02:49:18;;;;;;;5.00;1.20;;;;;;;;;;5147217;28;20725;-83
2021/10/22 02:51:45;;;;;;;5.33;1.70;;;;;;;;;;5147293;28;20452;-83
2021/10/22 02:54:13;;;;;;;2.60;1.03;;;;;;;;;;5147956;28;20825;-83
2021/10/22 02:56:41;;;;;;;5.97;1.27;;;;;;;;;;5146549;28;20446;-81
2021/10/22 02:59:08;;;;;;;4.80;1.30;;;;;;;;;;5148110;28;20441;-83
2021/10/22 03:01:36;;;;;;;5.17;2.93;;;;;;;;;;5147297;28;20504;-84
2021/10/22 03:04:04;;;;;;;1.77;0.90;;;;;;;;;;5148798;28;20457;-83
2021/10/22 03:06:33;;;;;;;7.40;1.47;;;;;;;;;;5149970;27;20540;-84
2021/10/22 03:09:01;;;;;;;7.93;2.17;;;;;;;;;;5150628;27;20537;-83
2021/10/22 03:11:29;;;;;;;3.13;1.20;;;;;;;;;;5150619;27;20902;-83
2021/10/22 03:13:56;;;;;;;7.37;2.90;;;;;;;;;;5150455;27;20438;-83
2021/10/22 03:16:24;;;;;;;3.13;2.30;;;;;;;;;;5151321;27;20482;-82
2021/10/22 03:18:52;;;;;;;2.97;2.77;;;;;;;;;;5150738;27;20698;-83
2021/10/22 03:21:20;;;;;;;6.80;3.73;;;;;;;;;;5152825;27;20969;-83
2021/10/22 03:23:54;;;;;;;8.43;6.67;;;;;;;;;;5152337;27;20452;-84
2021/10/22 03:26:22;;;;;;;13.67;3.40;;;;;;;;;;5152202;27;20457;-83
2021/10/22 03:28:50;;;;;;;10.83;10.10;;;;;;;;;;5152842;27;20544;-83
2021/10/22 03:31:18;;;;;;;13.00;11.77;;;;;;;;;;5151205;27;20450;-83
2021/10/22 03:33:46;;;;;;;10.67;10.00;;;;;;;;;;5150217;27;20460;-83
2021/10/22 03:36:13;;;;;;;11.87;10.60;;;;;;;;;;5148179;27;20763;-81
2021/10/22 03:38:42;;;;;;;9.60;9.10;;;;;;;;;;5149885;27;20481;-82
2021/10/22 03:41:11;;;;;;;6.10;5.60;;;;;;;;;;5128979;28;20516;-83
2021/10/22 03:43:39;;;;;;;5.87;5.57;;;;;;;;;;5130840;28;20450;-82
2021/10/22 03:46:08;;;;;;;6.83;6.30;;;;;;;;;;5137756;27;20453;-83
2021/10/22 03:48:35;;;;;;;6.70;5.50;;;;;;;;;;5152790;27;20876;-83
2021/10/22 03:51:03;;;;;;;7.50;7.00;;;;;;;;;;5152894;27;20947;-82
2021/10/22 03:53:31;;;;;;;5.23;5.00;;;;;;;;;;5149577;27;20510;-82
2021/10/22 03:55:58;;;;;;;11.53;10.73;;;;;;;;;;5151326;27;20784;-83
2021/10/22 03:58:28;;;;;;;7.53;7.10;;;;;;;;;;5149229;27;20453;-82
2021/10/22 04:00:55;;;;;;;5.47;5.03;;;;;;;;;;5149625;27;20485;-82
2021/10/22 04:03:23;;;;;;;3.97;2.90;;;;;;;;;;5150038;27;20446;-83
2021/10/22 04:05:51;;;;;;;8.80;4.03;;;;;;;;;;5151601;27;20529;-83
2021/10/22 04:08:19;;;;;;;5.47;4.97;;;;;;;;;;5151117;27;20465;-82
2021/10/22 04:10:48;;;;;;;8.63;7.10;;;;;;;;;;5151421;27;20486;-82
2021/10/22 04:13:16;;;;;;;13.80;7.07;;;;;;;;;;5149286;27;20453;-83
2021/10/22 04:15:45;;;;;;;7.70;7.10;;;;;;;;;;5150209;27;20477;-83
2021/10/22 04:18:14;;;;;;;3.53;3.23;;;;;;;;;;5148949;27;20616;-83
2021/10/22 04:20:42;;;;;;;3.23;2.40;;;;;;;;;;5149143;27;20485;-83
2021/10/22 04:23:10;;;;;;;2.53;1.83;;;;;;;;;;5149208;27;20484;-83
2021/10/22 04:25:37;;;;;;;6.33;3.90;;;;;;;;;;5149733;27;20458;-81
2021/10/22 04:28:07;;;;;;;3.53;2.67;;;;;;;;;;5129683;28;20518;-82
2021/10/22 04:30:34;;;;;;;3.67;1.30;;;;;;;;;;5127584;28;20561;-81
2021/10/22 04:33:06;;;;;;;3.03;2.10;;;;;;;;;;5128949;28;20545;-83
2021/10/22 04:35:34;;;;;;;5.87;2.23;;;;;;;;;;5128487;28;20497;-83
2021/10/22 04:40:29;;;;;;;1.80;1.20;;;;;;;;;;5148449;27;20804;-83
2021/10/22 04:40:52;;;;;;;5.63;2.40;;;;;;;;;;5147872;27;20481;-84
2021/10/22 04:43:20;;;;;;;7.97;2.60;;;;;;;;;;5148507;27;20472;-79
2021/10/22 04:45:50;;;;;;;3.50;2.57;;;;;;;;;;5149592;27;20486;-83
2021/10/22 04:48:19;;;;;;;1.70;1.17;;;;;;;;;;5150484;27;20522;-83
2021/10/22 04:50:49;;;;;;;3.93;1.63;;;;;;;;;;5148156;27;20460;-82
2021/10/22 04:53:18;;;;;;;2.40;1.70;;;;;;;;;;5147508;27;20453;-83
2021/10/22 04:55:46;;;;;;;2.50;1.37;;;;;;;;;;5147803;27;20469;-81
2021/10/22 04:58:14;;;;;;;2.70;1.60;;;;;;;;;;5147579;27;20495;-82
2021/10/22 05:00:41;;;;;;;6.07;2.90;;;;;;;;;;5147819;27;20576;-82
2021/10/22 05:03:09;;;;;;;1.87;1.17;;;;;;;;;;5147530;27;20742;-83
2021/10/22 05:05:41;;;;;;;3.87;2.07;;;;;;;;;;5146591;27;20523;-83
2021/10/22 05:08:08;;;;;;;2.47;1.60;;;;;;;;;;5146458;27;20540;-83
2021/10/22 05:10:36;;;;;;;4.37;2.57;;;;;;;;;;5146342;27;20461;-83
2021/10/22 05:13:04;;;;;;;3.13;1.30;;;;;;;;;;5146455;27;20466;-80
2021/10/22 05:15:31;;;;;;;8.50;1.80;;;;;;;;;;5148160;27;20470;-81
2021/10/22 05:18:04;;;;;;;2.80;1.20;;;;;;;;;;5145945;27;20505;-83
2021/10/22 05:20:32;;;;;;;1.97;1.13;;;;;;;;;;5146929;27;20478;-80
2021/10/22 05:23:01;;;;;;;4.23;2.27;;;;;;;;;;5146945;27;20450;-84
2021/10/22 05:25:30;;;;;;;5.30;2.33;;;;;;;;;;5147731;27;20557;-84
2021/10/22 05:28:01;;;;;;;2.67;2.10;;;;;;;;;;5145661;27;20867;-82
2021/10/22 05:30:29;;;;;;;2.70;1.30;;;;;;;;;;5148634;27;20479;-82
2021/10/22 05:32:59;;;;;;;9.67;1.67;;;;;;;;;;5139844;27;20467;-82
2021/10/22 05:35:33;;;;;;;9.57;2.50;;;;;;;;;;5126760;28;20458;-82
2021/10/22 05:38:04;;;;;;;6.93;1.47;;;;;;;;;;5143150;27;20476;-83
2021/10/22 05:40:32;;;;;;;5.33;1.50;;;;;;;;;;5149568;27;20611;-83
2021/10/22 05:43:00;;;;;;;5.50;1.60;;;;;;;;;;5148357;27;20493;-84
2021/10/22 05:45:30;;;;;;;10.50;2.90;;;;;;;;;;5147916;27;20458;-82
2021/10/22 05:47:58;;;;;;;10.47;2.40;;;;;;;;;;5147937;27;20466;-83
2021/10/22 05:50:26;;;;;;;3.63;1.23;;;;;;;;;;5142543;27;20461;-81
2021/10/22 05:52:54;;;;;;;4.10;1.63;;;;;;;;;;5139700;27;21159;-81
2021/10/22 05:55:23;;;;;;;6.00;1.90;;;;;;;;;;5141621;27;20461;-82
2021/10/22 05:57:51;;;;;;;6.10;2.33;;;;;;;;;;5140546;27;20454;-81
2021/10/22 06:00:18;;;;;;;10.33;2.97;;;;;;;;;;5140786;27;20477;-81
2021/10/22 06:02:46;;;;;;;4.00;2.53;;;;;;;;;;5140197;27;20461;-81
2021/10/22 06:05:14;;;;;;;4.63;1.17;;;;;;;;;;5139571;27;20470;-82
2021/10/22 06:07:42;;;;;;;8.97;2.73;;;;;;;;;;5138915;27;20477;-82
2021/10/22 06:10:10;;;;;;;5.77;2.03;;;;;;;;;;5141066;27;20837;-83
2021/10/22 06:12:40;;;;;;;12.13;2.17;;;;;;;;;;5140377;27;20456;-79
2021/10/22 06:15:09;;;;;;;1.50;0.90;;;;;;;;;;5145156;27;20531;-79
2021/10/22 06:17:38;;;;;;;3.07;2.60;;;;;;;;;;5151733;27;20449;-82
2021/10/22 06:20:13;;;;;;;2.13;1.10;;;;;;;;;;5147813;27;20831;-81
2021/10/22 06:23:53;;;;;;;6.10;3.47;;;;;;;;;;5146240;27;20506;-82
2021/10/22 06:25:40;;;;;;;12.10;4.10;;;;;;;;;;5145239;27;20487;-83
2021/10/22 06:28:10;;;;;;;8.90;4.30;;;;;;;;;;5143216;27;20457;-80
2021/10/22 06:30:38;;;;;;;9.67;3.87;;;;;;;;;;5164114;27;20456;-79
2021/10/22 06:33:13;;;;;;;4.60;3.23;;;;;;;;;;5168184;27;20448;-80
2021/10/22 06:35:43;;;;;;;7.07;1.87;;;;;;;;;;5156830;27;21165;-79
2021/10/22 06:38:11;;;;;;;5.70;2.80;;;;;;;;;;5143908;27;20446;-79
2021/10/22 06:40:43;;;;;;;4.00;2.40;;;;;;;;;;5140257;27;20504;-78
2021/10/22 06:43:12;;;;;;;16.40;4.10;;;;;;;;;;5144648;27;20529;-80
2021/10/22 06:45:40;;;;;;;3.87;1.50;;;;;;;;;;5142218;28;20454;-80
2021/10/22 06:48:08;;;;;;;4.10;1.60;;;;;;;;;;5141249;28;20839;-80
2021/10/22 06:50:36;;;;;;;2.67;1.60;;;;;;;;;;5140719;28;20489;-81
2021/10/22 06:53:04;;;;;;;3.07;1.90;;;;;;;;;;5141745;28;20514;-80
2021/10/22 06:55:34;;;;;;;6.27;1.90;;;;;;;;;;5143192;28;20468;-80
2021/10/22 06:58:03;;;;;;;9.50;2.87;;;;;;;;;;5142092;28;20438;-81
2021/10/22 07:00:32;;;;;;;9.77;2.73;;;;;;;;;;5143961;28;20488;-79
2021/10/22 07:03:01;;;;;;;9.60;3.43;;;;;;;;;;5143642;28;20446;-82
2021/10/22 07:05:48;;;;;;;6.97;1.70;;;;;;;;;;5143673;28;20488;-80
2021/10/22 07:08:17;;;;;;;5.10;2.37;;;;;;;;;;5142275;27;20462;-80
2021/10/22 07:10:45;;;;;;;4.70;3.13;;;;;;;;;;5143084;28;20456;-80
2021/10/22 07:13:12;;;;;;;2.60;1.43;;;;;;;;;;5146387;28;20515;-80
2021/10/22 07:15:42;;;;;;;3.87;1.20;;;;;;;;;;5147551;28;20688;-79
2021/10/22 07:18:10;;;;;;;4.67;2.43;;;;;;;;;;5143249;28;20453;-77
2021/10/22 07:20:38;;;;;;;4.80;3.23;;;;;;;;;;5144631;28;20493;-80
2021/10/22 07:23:07;;;;;;;6.77;2.87;;;;;;;;;;5142487;28;20477;-80
2021/10/22 07:25:37;;;;;;;2.83;1.27;;;;;;;;;;5142690;28;21001;-80
2021/10/22 07:28:09;;;;;;;6.67;3.13;;;;;;;;;;5143263;28;20470;-81
2021/10/22 07:30:37;;;;;;;4.10;2.20;;;;;;;;;;5142454;28;20462;-80
2021/10/22 07:33:07;;;;;;;11.03;3.37;;;;;;;;;;5144543;28;20477;-79
2021/10/22 07:35:37;;;;;;;3.10;2.00;;;;;;;;;;5145511;28;20462;-80
2021/10/22 07:38:09;;;;;;;9.60;2.80;;;;;;;;;;5146731;28;20521;-81
2021/10/22 07:40:37;;;;;;;6.93;1.60;;;;;;;;;;5147334;28;20583;-79
2021/10/22 07:43:05;;;;;;;6.47;3.00;;;;;;;;;;5144916;28;20513;-82
2021/10/22 07:45:33;;;;;;;8.57;2.00;;;;;;;;;;5143146;28;20559;-81
2021/10/22 07:48:00;;;;;;;4.93;2.43;;;;;;;;;;5143230;28;20499;-79
2021/10/22 07:50:30;;;;;;;4.83;1.33;;;;;;;;;;5145796;28;20457;-81
2021/10/22 07:52:59;;;;;;;4.83;1.83;;;;;;;;;;5148502;27;20445;-81
2021/10/22 07:55:27;;;;;;;5.23;2.27;;;;;;;;;;5150897;27;20521;-81
2021/10/22 07:57:57;;;;;;;3.80;1.37;;;;;;;;;;5148649;27;20481;-80
2021/10/22 08:00:42;;;;;;;4.20;1.93;;;;;;;;;;5147890;27;20755;-83
2021/10/22 08:03:10;;;;;;;7.03;2.37;;;;;;;;;;5149063;27;20445;-82
2021/10/22 08:05:40;;;;;;;4.50;1.63;;;;;;;;;;5142111;27;20469;-81
2021/10/22 08:08:09;;;;;;;3.57;2.30;;;;;;;;;;5133361;27;20457;-82
2021/10/22 08:10:36;;;;;;;6.70;1.30;;;;;;;;;;5122209;27;20535;-81
2021/10/22 08:13:09;;;;;;;5.03;1.80;;;;;;;;;;5121891;28;20443;-82
2021/10/22 08:15:39;;;;;;;2.73;1.60;;;;;;;;;;5131272;27;20463;-83
2021/10/22 08:18:08;;;;;;;8.87;2.90;;;;;;;;;;5144220;27;20449;-82
2021/10/22 08:20:36;;;;;;;4.47;2.00;;;;;;;;;;5153448;27;20453;-82
2021/10/22 08:23:06;;;;;;;2.50;1.17;;;;;;;;;;5155244;27;20438;-82
2021/10/22 08:25:34;;;;;;;2.60;1.27;;;;;;;;;;5152333;27;20460;-81
2021/10/22 08:28:02;;;;;;;7.33;1.37;;;;;;;;;;5151613;27;20473;-81
2021/10/22 08:30:30;;;;;;;5.70;4.50;;;;;;;;;;5142913;27;20450;-84
2021/10/22 08:32:58;;;;;;;10.13;4.33;;;;;;;;;;5143562;27;20531;-83
2021/10/22 08:35:28;;;;;;;8.00;1.40;;;;;;;;;;5148612;27;20489;-82
2021/10/22 08:37:58;;;;;;;4.40;2.37;;;;;;;;;;5148694;27;20512;-83
2021/10/22 08:40:27;;;;;;;2.03;0.80;;;;;;;;;;5151001;27;20744;-83
2021/10/22 08:42:55;;;;;;;5.77;2.47;;;;;;;;;;5148514;27;20545;-82
2021/10/22 08:45:23;;;;;;;10.13;3.10;;;;;;;;;;5149425;27;20450;-83
2021/10/22 08:47:51;;;;;;;7.57;4.80;;;;;;;;;;5148519;27;20536;-82
2021/10/22 08:50:21;;;;;;;3.27;1.60;;;;;;;;;;5148906;27;20893;-81
2021/10/22 08:52:49;;;;;;;5.50;2.80;;;;;;;;;;5150539;27;20874;-81
2021/10/22 08:55:17;;;;;;;5.93;2.40;;;;;;;;;;5149866;27;20446;-79
2021/10/22 08:57:48;;;;;;;8.13;3.40;;;;;;;;;;5163282;27;20973;-82
2021/10/22 09:00:18;;;;;;;4.33;2.93;;;;;;;;;;5167518;27;20450;-81
2021/10/22 09:02:48;;;;;;;3.83;2.20;;;;;;;;;;5149365;27;20505;-81
2021/10/22 09:05:17;;;;;;;4.10;2.13;;;;;;;;;;5145673;27;20454;-82
2021/10/22 09:07:47;;;;;;;17.33;2.33;;;;;;;;;;5146445;27;20453;-81
2021/10/22 09:10:16;;;;;;;3.93;2.10;;;;;;;;;;5149476;27;20739;-81
2021/10/22 09:12:50;;;;;;;4.33;1.47;;;;;;;;;;5150259;27;20457;-83
2021/10/22 09:15:22;;;;;;;8.30;1.67;;;;;;;;;;5144479;27;20854;-83
2021/10/22 09:17:50;;;;;;;6.63;1.87;;;;;;;;;;5132206;27;20488;-80
2021/10/22 09:20:19;;;;;;;3.00;1.77;;;;;;;;;;5145350;27;20835;-82
2021/10/22 09:22:51;;;;;;;8.67;3.80;;;;;;;;;;5145379;27;20572;-82
2021/10/22 09:25:21;;;;;;;5.37;2.17;;;;;;;;;;5147246;27;20557;-82
2021/10/22 09:27:54;;;;;;;7.30;3.70;;;;;;;;;;5143732;27;20457;-79
2021/10/22 09:30:38;;;;;;;6.23;2.77;;;;;;;;;;5144940;27;20454;-81
2021/10/22 09:33:07;;;;;;;5.00;3.97;;;;;;;;;;5147310;27;20430;-81
2021/10/22 09:35:41;;;;;;;4.70;2.77;;;;;;;;;;5145856;27;20480;-82
2021/10/22 09:38:09;;;;;;;3.17;1.93;;;;;;;;;;5135071;27;20454;-80
2021/10/22 09:40:40;;;;;;;4.00;2.17;;;;;;;;;;5133964;27;20475;-80
2021/10/22 09:43:18;;;;;;;4.43;2.60;;;;;;;;;;5123057;27;20483;-83
2021/10/22 09:45:48;;;;;;;4.87;1.77;;;;;;;;;;5123479;27;20523;-80
2021/10/22 09:48:29;;;;;;;3.63;2.17;;;;;;;;;;5123688;27;20451;-80
2021/10/22 09:50:58;;;;;;;4.33;2.50;;;;;;;;;;5122000;28;20519;-81
2021/10/22 09:53:37;;;;;;;6.43;2.93;;;;;;;;;;5122766;28;20523;-82
2021/10/22 09:56:07;;;;;;;6.73;2.50;;;;;;;;;;5121693;28;20481;-80
2021/10/22 09:58:36;;;;;;;3.40;1.80;;;;;;;;;;5120765;27;21083;-80
2021/10/22 10:01:13;;;;;;;3.83;2.23;;;;;;;;;;5121681;28;20677;-80
2021/10/22 10:03:42;;;;;;;3.63;2.30;;;;;;;;;;5121203;28;20507;-80
2021/10/22 10:06:12;;;;;;;6.60;2.50;;;;;;;;;;5119867;27;20851;-80
2021/10/22 10:08:44;;;;;;;4.50;1.53;;;;;;;;;;5122784;28;20466;-80
2021/10/22 10:11:11;;;;;;;5.23;2.87;;;;;;;;;;5121718;28;20537;-80
2021/10/22 10:13:41;;;;;;;2.80;2.07;;;;;;;;;;5121180;27;20488;-83
2021/10/22 10:16:11;;;;;;;2.07;1.20;;;;;;;;;;5121528;28;20542;-81
2021/10/22 10:18:42;;;;;;;5.80;2.40;;;;;;;;;;5121706;28;20450;-81
2021/10/22 10:21:10;;;;;;;4.60;3.03;;;;;;;;;;5119544;28;20480;-82
2021/10/22 10:23:39;;;;;;;4.90;3.20;;;;;;;;;;5128299;27;21158;-82
2021/10/22 10:26:22;;;;;;;3.77;1.93;;;;;;;;;;5132437;27;20485;-80
2021/10/22 10:29:03;;;;;;;9.77;4.00;;;;;;;;;;5127093;27;20968;-80
2021/10/22 10:31:33;;;;;;;7.80;4.20;;;;;;;;;;5144579;27;20492;-83
2021/10/22 10:34:01;;;;;;;5.27;2.27;;;;;;;;;;5139066;27;20909;-79
2021/10/22 10:36:47;;;;;;;7.67;3.20;;;;;;;;;;5132975;27;20442;-80
2021/10/22 10:39:16;;;;;;;8.80;2.33;;;;;;;;;;5125599;27;20489;-81
2021/10/22 10:41:44;;;;;;;9.63;3.47;;;;;;;;;;5154664;27;20533;-80
2021/10/22 10:44:36;;;;;;;5.43;2.43;;;;;;;;;;5161645;27;20894;-78
2021/10/22 10:47:25;;;;;;;7.03;2.30;;;;;;;;;;5103242;27;20897;-80
2021/10/22 10:49:59;;;;;;;3.07;1.87;;;;;;;;;;5126517;27;20542;-80
2021/10/22 10:52:56;;;;;;;4.77;2.27;;;;;;;;;;5133944;28;20461;-79
2021/10/22 10:55:28;;;;;;;6.17;2.80;;;;;;;;;;5121314;28;20935;-78
2021/10/22 10:57:57;;;;;;;3.10;2.20;;;;;;;;;;5131564;28;20490;-81
2021/10/22 11:00:29;;;;;;;4.50;2.37;;;;;;;;;;5141388;28;20885;-81
2021/10/22 11:03:14;;;;;;;8.80;6.93;;;;;;;;;;5141193;28;20517;-82
2021/10/22 11:06:08;;;;;;;8.33;1.93;;;;;;;;;;5124472;28;20489;-79
2021/10/22 11:08:47;;;;;;;6.57;2.20;;;;;;;;;;5134813;28;20539;-82
2021/10/22 11:11:33;;;;;;;1.93;1.40;;;;;;;;;;5135265;27;20751;-80
2021/10/22 11:14:16;;;;;;;2.50;1.60;;;;;;;;;;5124133;28;20528;-80
2021/10/22 11:16:46;;;;;;;3.50;1.57;;;;;;;;;;5117557;28;20542;-79
2021/10/22 11:19:18;;;;;;;3.87;2.23;;;;;;;;;;5132848;28;20466;-80
2021/10/22 11:21:46;;;;;;;3.40;1.77;;;;;;;;;;5128340;28;20458;-81
2021/10/22 11:24:19;;;;;;;2.47;1.20;;;;;;;;;;5122701;28;20510;-81
2021/10/22 11:26:47;;;;;;;4.47;1.67;;;;;;;;;;5129840;28;20442;-83
2021/10/22 11:29:16;;;;;;;4.20;1.57;;;;;;;;;;5136270;27;20449;-79
2021/10/22 11:31:46;;;;;;;3.00;1.20;;;;;;;;;;5132293;27;20451;-84
2021/10/22 11:34:14;;;;;;;3.20;1.53;;;;;;;;;;5136159;27;20438;-82
2021/10/22 11:36:48;;;;;;;2.17;1.63;;;;;;;;;;5130494;27;20450;-82
2021/10/22 11:39:21;;;;;;;3.43;1.17;;;;;;;;;;5134186;27;20852;-82
2021/10/22 11:42:01;;;;;;;2.33;1.00;;;;;;;;;;5142629;27;20590;-81
2021/10/22 11:44:29;;;;;;;3.90;1.23;;;;;;;;;;5153299;27;21869;-81
2021/10/22 11:46:57;;;;;;;3.20;1.40;;;;;;;;;;5145806;27;20521;-83
2021/10/22 11:49:26;;;;;;;4.77;1.70;;;;;;;;;;5121903;28;20541;-83
2021/10/22 11:52:00;;;;;;;1.73;1.27;;;;;;;;;;5147985;27;20450;-80
2021/10/22 11:54:36;;;;;;;2.97;1.77;;;;;;;;;;5134226;27;20446;-82
2021/10/22 11:57:04;;;;;;;2.47;1.87;;;;;;;;;;5138198;27;20446;-83
2021/10/22 11:59:33;;;;;;;3.37;1.90;;;;;;;;;;5141274;27;20457;-82
2021/10/22 12:02:08;;;;;;;1.50;1.00;;;;;;;;;;5142517;27;20988;-82
2021/10/22 12:04:36;;;;;;;5.77;2.67;;;;;;;;;;5121710;28;20803;-80
2021/10/22 12:07:07;;;;;;;1.73;1.23;;;;;;;;;;5137071;27;20460;-78
2021/10/22 12:09:36;;;;;;;3.73;1.87;;;;;;;;;;5144250;27;20446;-81
2021/10/22 12:12:06;;;;;;;4.07;1.27;;;;;;;;;;5144887;27;20438;-79
2021/10/22 12:14:36;;;;;;;3.57;1.63;;;;;;;;;;5150304;27;20450;-80
2021/10/22 12:17:05;;;;;;;5.13;2.10;;;;;;;;;;5153842;27;20474;-81
2021/10/22 12:19:34;;;;;;;2.03;1.43;;;;;;;;;;5152155;27;21092;-81
2021/10/22 12:22:02;;;;;;;3.57;1.27;;;;;;;;;;5173790;27;20441;-78
2021/10/22 12:24:49;;;;;;;2.87;1.00;;;;;;;;;;5176076;27;20441;-79
2021/10/22 12:27:17;;;;;;;3.50;1.33;;;;;;;;;;5130385;28;20451;-79
2021/10/22 12:29:57;;;;;;;1.37;0.80;;;;;;;;;;5132113;27;20518;-81
2021/10/22 12:32:44;;;;;;;3.30;1.10;;;;;;;;;;5173549;27;20437;-82
2021/10/22 12:35:18;;;;;;;1.90;0.90;;;;;;;;;;5170187;27;20528;-80
2021/10/22 12:38:02;;;;;;;4.23;1.03;;;;;;;;;;5162403;27;20454;-81
2021/10/22 12:40:32;;;;;;;2.37;0.97;;;;;;;;;;5158499;27;20448;-81
2021/10/22 12:43:08;;;;;;;2.17;1.30;;;;;;;;;;5160330;27;20492;-79
2021/10/22 12:45:41;;;;;;;1.70;0.80;;;;;;;;;;5154565;27;20512;-81
2021/10/22 12:48:09;;;;;;;2.20;1.37;;;;;;;;;;5161160;27;20441;-81
2021/10/22 12:50:40;;;;;;;2.10;0.97;;;;;;;;;;5154609;27;20477;-79
2021/10/22 12:53:13;;;;;;;1.33;0.77;;;;;;;;;;5149172;27;20469;-81
2021/10/22 12:55:49;;;;;;;1.80;1.07;;;;;;;;;;5146983;27;20454;-80
2021/10/22 12:58:21;;;;;;;4.73;1.07;;;;;;;;;;5151047;27;20462;-79
2021/10/22 13:01:04;;;;;;;3.73;1.33;;;;;;;;;;5171599;27;20437;-79
2021/10/22 13:03:32;;;;;;;1.50;0.90;;;;;;;;;;5167406;27;20539;-80
2021/10/22 13:06:10;;;;;;;2.80;0.77;;;;;;;;;;5156083;27;20434;-78
2021/10/22 13:08:44;;;;;;;2.10;1.27;;;;;;;;;;5157535;27;20445;-79
2021/10/22 13:11:39;;;;;;;1.40;0.70;;;;;;;;;;5158785;27;20517;-79
2021/10/22 13:22:22;;;;;;;1.27;0.70;;;;;;;;;;5166735;27;20452;-80
2021/10/22 13:24:53;;;;;;;1.80;1.00;;;;;;;;;;5162219;27;20483;-81
2021/10/22 13:27:23;;;;;;;2.10;1.10;;;;;;;;;;5165930;27;20648;-80
2021/10/22 13:29:56;;;;;;;1.93;0.83;;;;;;;;;;5146267;27;20468;-80
2021/10/22 13:32:25;;;;;;;3.70;1.70;;;;;;;;;;5145074;27;20468;-80
2021/10/22 13:34:54;;;;;;;2.43;1.20;;;;;;;;;;5148060;27;20513;-82
2021/10/22 13:37:22;;;;;;;4.37;1.93;;;;;;;;;;5149635;27;20442;-80
2021/10/22 13:39:50;;;;;;;2.33;0.83;;;;;;;;;;5146680;27;20485;-80
2021/10/22 13:42:18;;;;;;;2.53;1.27;;;;;;;;;;5157818;27;20813;-80
2021/10/22 13:44:48;;;;;;;1.40;0.70;;;;;;;;;;5146697;27;20454;-81
2021/10/22 13:47:15;;;;;;;1.73;0.90;;;;;;;;;;5155857;27;20513;-80
2021/10/22 13:49:43;;;;;;;6.40;1.90;;;;;;;;;;5152319;27;20465;-80
2021/10/22 13:52:15;;;;;;;2.30;1.13;;;;;;;;;;5146850;27;20451;-79
2021/10/22 13:54:43;;;;;;;3.80;1.63;;;;;;;;;;5148553;27;20446;-79
2021/10/22 13:57:10;;;;;;;1.93;1.13;;;;;;;;;;5154566;27;20518;-80
2021/10/22 13:59:39;;;;;;;2.97;1.30;;;;;;;;;;5145865;27;20454;-80
2021/10/22 14:02:09;;;;;;;3.33;2.17;;;;;;;;;;5158102;27;20472;-79
2021/10/22 14:04:37;;;;;;;8.47;2.10;;;;;;;;;;5161627;27;20510;-78
2021/10/22 14:07:05;;;;;;;2.53;1.97;;;;;;;;;;5160941;27;20449;-79
2021/10/22 14:09:35;;;;;;;4.90;1.80;;;;;;;;;;5154016;27;20572;-80
2021/10/22 14:12:08;;;;;;;3.63;2.07;;;;;;;;;;5163791;27;20718;-80
2021/10/22 14:14:41;;;;;;;1.83;1.13;;;;;;;;;;5164435;27;20472;-80
2021/10/22 14:17:26;;;;;;;2.10;1.10;;;;;;;;;;5161948;27;20521;-80
2021/10/22 14:20:09;;;;;;;4.57;2.70;;;;;;;;;;5137725;27;20452;-80
2021/10/22 14:30:52;;;;;;;3.50;2.50;;;;;;;;;;5153483;27;20417;-79
2021/10/22 14:33:24;;;;;;;3.10;1.80;;;;;;;;;;5150690;27;20442;-81
2021/10/22 14:36:16;;;;;;;3.70;0.80;;;;;;;;;;5159436;27;20436;-80
2021/10/22 14:38:44;;;;;;;4.60;1.87;;;;;;;;;;5168429;27;20452;-79
2021/10/22 14:41:12;;;;;;;1.97;1.33;;;;;;;;;;5169351;27;20433;-79
2021/10/22 14:43:42;;;;;;;4.63;2.00;;;;;;;;;;5165921;27;20513;-79
2021/10/22 14:46:13;;;;;;;5.53;1.77;;;;;;;;;;5154832;27;20506;-80
2021/10/22 14:48:45;;;;;;;2.60;1.63;;;;;;;;;;5167366;27;20528;-80
2021/10/22 14:51:21;;;;;;;3.50;1.20;;;;;;;;;;5147668;27;20446;-79
2021/10/22 14:53:57;;;;;;;2.03;1.07;;;;;;;;;;5155765;27;20528;-79
2021/10/22 14:56:24;;;;;;;3.07;1.37;;;;;;;;;;5146153;27;20471;-79
2021/10/22 14:58:58;;;;;;;8.67;1.73;;;;;;;;;;5154080;27;20460;-82
2021/10/22 15:01:26;;;;;;;1.63;1.00;;;;;;;;;;5157969;27;20445;-79
2021/10/22 15:04:04;;;;;;;2.90;1.30;;;;;;;;;;5139631;27;20478;-79
2021/10/22 15:06:33;;;;;;;1.67;0.73;;;;;;;;;;5153965;27;20452;-80
2021/10/22 15:09:01;;;;;;;2.13;1.53;;;;;;;;;;5158591;27;20486;-80
2021/10/22 15:11:29;;;;;;;6.70;1.50;;;;;;;;;;5161859;27;20472;-80
2021/10/22 15:13:58;;;;;;;4.43;0.90;;;;;;;;;;5154244;27;20938;-79
2021/10/22 15:16:26;;;;;;;2.90;1.67;;;;;;;;;;5155771;27;20450;-80
2021/10/22 15:18:54;;;;;;;4.57;2.33;;;;;;;;;;5159038;27;20456;-81